createdAt,value
2022-09-22T00:01:29.891Z,99.90
2022-09-22T00:03:58.651Z,99.90
2022-09-22T00:06:28.775Z,99.90
2022-09-22T00:09:00.782Z,99.90
2022-09-22T00:11:29.606Z,99.90
2022-09-22T00:14:00.478Z,99.90
2022-09-22T00:16:29.849Z,99.90
2022-09-22T00:19:00.091Z,99.90
2022-09-22T00:21:31.045Z,99.90
2022-09-22T00:23:59.057Z,99.90
2022-09-22T00:26:27.096Z,99.90
2022-09-22T00:28:55.161Z,99.90
2022-09-22T00:31:26.322Z,99.90
2022-09-22T00:33:55.078Z,99.90
2022-09-22T00:36:23.860Z,99.90
2022-09-22T00:38:52.009Z,99.90
2022-09-22T00:41:20.854Z,99.90
2022-09-22T00:43:50.460Z,99.90
2022-09-22T00:46:19.942Z,99.90
2022-09-22T00:48:51.431Z,99.90
2022-09-22T00:51:21.443Z,99.90
2022-09-22T00:53:49.796Z,99.90
2022-09-22T00:56:19.819Z,99.90
2022-09-22T00:58:50.096Z,99.90
2022-09-22T01:01:19.592Z,99.90
2022-09-22T01:03:50.240Z,99.90
2022-09-22T01:06:20.474Z,99.90
2022-09-22T01:08:48.483Z,99.90
2022-09-22T01:11:18.763Z,99.90
2022-09-22T01:13:53.152Z,99.90
2022-09-22T01:16:32.163Z,99.90
2022-09-22T01:19:10.381Z,99.90
2022-09-22T01:21:42.392Z,99.90
2022-09-22T01:24:40.615Z,99.90
2022-09-22T01:27:30.922Z,99.90
2022-09-22T01:30:12.978Z,99.90
2022-09-22T01:32:44.591Z,99.90
2022-09-22T01:35:17.547Z,99.90
2022-09-22T01:37:47.612Z,99.90
2022-09-22T01:40:21.850Z,99.90
2022-09-22T01:42:53.211Z,99.90
2022-09-22T01:45:24.216Z,99.90
2022-09-22T01:47:55.130Z,99.90
2022-09-22T01:50:25.561Z,99.90
2022-09-22T01:52:55.082Z,99.90
2022-09-22T01:55:28.595Z,99.90
2022-09-22T01:57:59.158Z,99.90
2022-09-22T02:00:40.923Z,99.90
2022-09-22T02:03:10.965Z,99.90
2022-09-22T02:05:44.220Z,99.90
2022-09-22T02:08:15.148Z,99.90
2022-09-22T02:10:48.127Z,99.90
2022-09-22T02:13:21.455Z,99.90
2022-09-22T02:16:06.861Z,99.90
2022-09-22T02:18:45.867Z,99.90
2022-09-22T02:21:16.747Z,99.90
2022-09-22T02:23:51.586Z,99.90
2022-09-22T02:26:24.137Z,99.90
2022-09-22T02:28:53.432Z,99.90
2022-09-22T02:31:23.542Z,99.90
2022-09-22T02:33:52.329Z,99.90
2022-09-22T02:36:35.740Z,99.90
2022-09-22T02:39:07.471Z,99.90
2022-09-22T02:41:39.379Z,99.90
2022-09-22T02:44:09.743Z,99.90
2022-09-22T02:46:42.228Z,99.90
2022-09-22T02:49:12.055Z,99.90
2022-09-22T02:51:40.134Z,99.90
2022-09-22T02:54:08.070Z,99.90
2022-09-22T02:56:36.125Z,99.90
2022-09-22T02:59:04.396Z,99.90
2022-09-22T03:01:35.077Z,99.90
2022-09-22T03:04:05.111Z,99.90
2022-09-22T03:06:33.596Z,99.90
2022-09-22T03:09:01.731Z,99.90
2022-09-22T03:11:29.657Z,99.90
2022-09-22T03:13:57.634Z,99.90
2022-09-22T03:16:25.638Z,99.90
2022-09-22T03:18:53.547Z,99.90
2022-09-22T03:21:22.938Z,99.90
2022-09-22T03:23:50.843Z,99.90
2022-09-22T03:26:18.792Z,99.90
2022-09-22T03:28:47.002Z,99.90
2022-09-22T03:31:14.988Z,99.90
2022-09-22T03:33:42.962Z,99.90
2022-09-22T03:36:10.834Z,99.90
2022-09-22T03:38:40.168Z,99.90
2022-09-22T03:41:08.051Z,99.90
2022-09-22T03:43:36.012Z,99.90
2022-09-22T03:46:04.359Z,99.90
2022-09-22T03:48:32.355Z,99.90
2022-09-22T03:51:00.287Z,99.90
2022-09-22T03:53:28.603Z,99.90
2022-09-22T03:56:06.522Z,99.90
2022-09-22T03:58:34.987Z,99.90
2022-09-22T04:01:02.974Z,99.90
2022-09-22T04:03:31.100Z,99.90
2022-09-22T04:05:59.195Z,99.90
2022-09-22T04:08:27.322Z,99.90
2022-09-22T04:10:55.332Z,99.90
2022-09-22T04:13:24.785Z,99.90
2022-09-22T04:15:52.879Z,99.90
2022-09-22T04:18:20.935Z,99.90
2022-09-22T04:20:49.067Z,99.90
2022-09-22T04:23:17.302Z,99.90
2022-09-22T04:25:45.274Z,99.90
2022-09-22T04:28:13.223Z,99.90
2022-09-22T04:30:44.006Z,99.90
2022-09-22T04:33:12.207Z,99.90
2022-09-22T04:35:40.163Z,99.90
2022-09-22T04:38:08.083Z,99.90
2022-09-22T04:40:36.186Z,99.90
2022-09-22T04:43:04.169Z,99.90
2022-09-22T04:45:36.041Z,99.90
2022-09-22T04:48:08.111Z,99.90
2022-09-22T04:50:36.026Z,99.90
2022-09-22T04:53:04.002Z,99.90
2022-09-22T04:55:31.954Z,99.90
2022-09-22T04:57:59.864Z,99.90
2022-09-22T05:00:28.907Z,99.90
2022-09-22T05:02:57.315Z,99.90
2022-09-22T05:05:28.110Z,99.90
2022-09-22T05:07:56.038Z,99.90
2022-09-22T05:10:25.413Z,99.90
2022-09-22T05:12:54.366Z,99.90
2022-09-22T05:15:22.826Z,99.90
2022-09-22T05:17:51.750Z,99.90
2022-09-22T05:20:20.514Z,99.90
2022-09-22T05:22:49.859Z,99.90
2022-09-22T05:25:19.195Z,99.90
2022-09-22T05:27:47.604Z,99.90
2022-09-22T05:30:15.748Z,99.90
2022-09-22T05:32:45.111Z,99.90
2022-09-22T05:35:23.522Z,99.90
2022-09-22T05:37:53.527Z,99.90
2022-09-22T05:40:24.168Z,99.90
2022-09-22T05:42:53.055Z,99.90
2022-09-22T05:45:21.770Z,99.90
2022-09-22T05:47:49.806Z,99.90
2022-09-22T05:50:23.752Z,99.90
2022-09-22T05:53:02.663Z,99.90
2022-09-22T05:55:30.723Z,99.90
2022-09-22T05:57:58.885Z,99.90
2022-09-22T06:00:27.207Z,99.90
2022-09-22T06:02:55.330Z,99.90
2022-09-22T06:05:23.479Z,99.90
2022-09-22T06:08:01.479Z,99.90
2022-09-22T06:10:29.436Z,99.90
2022-09-22T06:13:00.512Z,99.90
2022-09-22T06:15:28.791Z,99.90
2022-09-22T06:17:56.816Z,99.90
2022-09-22T06:20:24.754Z,99.90
2022-09-22T06:22:52.717Z,99.90
2022-09-22T06:25:22.066Z,99.90
2022-09-22T06:28:00.008Z,99.90
2022-09-22T06:30:27.922Z,99.90
2022-09-22T06:32:56.240Z,99.90
2022-09-22T06:35:24.158Z,99.90
2022-09-22T06:37:56.763Z,99.90
2022-09-22T06:40:26.425Z,99.90
2022-09-22T06:42:57.691Z,99.90
2022-09-22T06:45:27.183Z,99.90
2022-09-22T06:47:58.699Z,99.90
2022-09-22T06:50:31.189Z,99.90
2022-09-22T06:53:00.398Z,99.90
2022-09-22T06:55:30.241Z,99.90
2022-09-22T06:57:59.917Z,99.90
2022-09-22T07:00:32.973Z,99.90
2022-09-22T07:03:06.333Z,99.90
2022-09-22T07:05:34.881Z,99.90
2022-09-22T07:08:04.754Z,99.90
2022-09-22T07:10:38.101Z,99.90
2022-09-22T07:13:06.531Z,99.90
2022-09-22T07:15:34.923Z,99.90
2022-09-22T07:18:02.938Z,99.90
2022-09-22T07:20:33.797Z,99.90
2022-09-22T07:23:01.717Z,99.90
2022-09-22T07:25:29.862Z,99.90
2022-09-22T07:27:59.121Z,99.90
2022-09-22T07:30:28.070Z,99.90
2022-09-22T07:32:55.946Z,99.90
2022-09-22T07:35:23.974Z,99.90
2022-09-22T07:37:54.354Z,99.90
2022-09-22T07:40:22.244Z,99.90
2022-09-22T07:42:50.252Z,99.90
2022-09-22T07:45:19.649Z,99.90
2022-09-22T07:48:04.864Z,99.90
2022-09-22T07:50:32.819Z,99.90
2022-09-22T07:53:00.719Z,99.90
2022-09-22T07:55:28.651Z,99.90
2022-09-22T07:57:57.252Z,99.90
2022-09-22T08:00:28.024Z,99.90
2022-09-22T08:02:57.822Z,99.90
2022-09-22T08:05:27.201Z,99.90
2022-09-22T08:07:58.349Z,99.90
2022-09-22T08:10:26.906Z,99.90
2022-09-22T08:12:55.140Z,99.90
2022-09-22T08:15:26.921Z,99.90
2022-09-22T08:17:58.456Z,99.90
2022-09-22T08:20:28.146Z,99.90
2022-09-22T08:22:58.235Z,99.90
2022-09-22T08:25:26.279Z,99.90
2022-09-22T08:27:54.376Z,99.90
2022-09-22T08:30:22.316Z,99.90
2022-09-22T08:32:50.189Z,99.90
2022-09-22T08:35:19.781Z,99.90
2022-09-22T08:37:50.416Z,99.90
2022-09-22T08:40:21.261Z,99.90
2022-09-22T08:42:49.899Z,99.90
2022-09-22T08:45:27.095Z,99.90
2022-09-22T08:48:14.245Z,99.90
2022-09-22T08:51:05.767Z,99.90
2022-09-22T08:53:35.339Z,99.90
2022-09-22T08:56:07.025Z,99.90
2022-09-22T08:58:39.563Z,99.90
2022-09-22T09:01:14.668Z,99.90
2022-09-22T09:03:54.924Z,99.90
2022-09-22T09:06:27.019Z,99.90
2022-09-22T09:09:05.362Z,99.90
2022-09-22T09:11:45.639Z,99.90
2022-09-22T09:14:18.077Z,99.90
2022-09-22T09:16:49.048Z,99.90
2022-09-22T09:19:18.203Z,99.90
2022-09-22T09:21:49.491Z,99.90
2022-09-22T09:27:12.926Z,99.90
2022-09-22T09:29:44.518Z,99.90
2022-09-22T09:32:19.442Z,99.90
2022-09-22T09:34:50.370Z,99.90
2022-09-22T09:37:23.583Z,99.90
2022-09-22T09:39:51.795Z,99.90
2022-09-22T09:42:23.887Z,99.90
2022-09-22T09:44:53.767Z,99.90
2022-09-22T09:47:29.435Z,99.90
2022-09-22T09:49:57.707Z,99.90
2022-09-22T09:52:27.414Z,99.90
2022-09-22T09:54:55.663Z,99.90
2022-09-22T09:57:27.872Z,99.90
2022-09-22T10:00:28.233Z,99.90
2022-09-22T10:03:04.090Z,99.10
2022-09-22T10:05:36.279Z,99.90
2022-09-22T10:08:15.222Z,99.90
2022-09-22T10:10:43.271Z,99.50
2022-09-22T10:13:32.102Z,99.90
2022-09-22T10:16:05.070Z,97.30
2022-09-22T10:18:37.750Z,99.90
2022-09-22T10:21:07.235Z,99.90
2022-09-22T10:23:36.615Z,99.90
2022-09-22T10:26:18.442Z,99.90
2022-09-22T10:28:50.865Z,99.90
2022-09-22T10:31:24.985Z,99.90
2022-09-22T10:33:56.854Z,99.90
2022-09-22T10:36:26.115Z,99.80
2022-09-22T10:38:59.592Z,90.50
2022-09-22T10:41:32.414Z,84.50
2022-09-22T10:44:15.505Z,86.10
2022-09-22T10:46:59.110Z,92.10
2022-09-22T10:49:35.732Z,92.60
2022-09-22T10:52:09.402Z,93.20
2022-09-22T10:54:46.340Z,93.60
2022-09-22T10:57:19.312Z,95.80
2022-09-22T11:00:00.117Z,93.80
2022-09-22T11:02:46.027Z,93.50
2022-09-22T11:05:44.103Z,94.80
2022-09-22T11:08:31.465Z,95.70
2022-09-22T11:11:22.445Z,99.60
2022-09-22T11:13:57.490Z,98.80
2022-09-22T11:16:35.029Z,99.20
2022-09-22T11:19:24.800Z,99.90
2022-09-22T11:21:58.415Z,99.90
2022-09-22T11:24:37.771Z,99.90
2022-09-22T11:27:10.306Z,99.90
2022-09-22T11:29:46.879Z,99.70
2022-09-22T11:32:22.971Z,99.50
2022-09-22T11:34:55.962Z,97.20
2022-09-22T11:37:30.140Z,99.80
2022-09-22T11:40:09.600Z,99.90
2022-09-22T11:42:43.334Z,99.60
2022-09-22T11:45:18.727Z,97.70
2022-09-22T11:47:54.995Z,97.90
2022-09-22T11:50:36.606Z,94.00
2022-09-22T11:53:14.689Z,95.80
2022-09-22T11:55:45.579Z,96.60
2022-09-22T11:58:17.294Z,99.90
2022-09-22T12:00:47.612Z,99.90
2022-09-22T12:03:18.645Z,99.10
2022-09-22T12:05:49.990Z,99.90
2022-09-22T12:08:18.787Z,99.70
2022-09-22T12:10:47.462Z,99.90
2022-09-22T12:13:17.830Z,99.90
2022-09-22T12:15:48.686Z,99.90
2022-09-22T12:18:20.141Z,99.90
2022-09-22T12:20:54.074Z,98.50
2022-09-22T12:23:28.533Z,99.50
2022-09-22T12:25:57.572Z,99.90
2022-09-22T12:28:28.147Z,99.80
2022-09-22T12:31:04.109Z,99.90
2022-09-22T12:33:32.742Z,99.90
2022-09-22T12:36:01.414Z,99.50
2022-09-22T12:38:31.583Z,99.90
2022-09-22T12:41:02.502Z,98.60
2022-09-22T12:43:32.800Z,97.50
2022-09-22T12:46:03.744Z,94.60
2022-09-22T12:48:32.296Z,92.70
2022-09-22T12:51:16.110Z,92.80
2022-09-22T12:53:44.157Z,90.30
2022-09-22T12:56:39.489Z,83.80
2022-09-22T12:59:22.206Z,75.80
2022-09-22T13:02:15.804Z,76.30
2022-09-22T13:05:04.282Z,73.80
2022-09-22T13:07:34.999Z,75.70
2022-09-22T13:10:20.922Z,82.80
2022-09-22T13:13:03.805Z,72.40
2022-09-22T13:15:32.234Z,71.00
2022-09-22T13:18:01.538Z,74.40
2022-09-22T13:20:31.468Z,76.80
2022-09-22T13:23:05.658Z,80.60
2022-09-22T13:25:33.638Z,81.70
2022-09-22T13:28:13.124Z,80.40
2022-09-22T13:30:42.100Z,87.00
2022-09-22T13:33:22.124Z,77.70
2022-09-22T13:35:53.223Z,74.80
2022-09-22T13:38:21.920Z,83.30
2022-09-22T13:40:50.932Z,85.50
2022-09-22T13:43:23.514Z,87.30
2022-09-22T13:45:51.906Z,78.60
2022-09-22T13:48:22.251Z,85.80
2022-09-22T13:50:51.815Z,81.20
2022-09-22T13:53:20.723Z,80.50
2022-09-22T13:55:49.316Z,85.60
2022-09-22T13:58:22.207Z,85.20
2022-09-22T14:01:13.414Z,83.90
2022-09-22T14:03:43.902Z,83.10
2022-09-22T14:06:14.197Z,85.40
2022-09-22T14:08:42.356Z,84.00
2022-09-22T14:11:14.488Z,84.40
2022-09-22T14:13:43.627Z,86.60
2022-09-22T14:16:25.507Z,87.20
2022-09-22T14:18:58.490Z,88.70
2022-09-22T14:21:26.574Z,90.80
2022-09-22T14:23:54.799Z,88.90
2022-09-22T14:26:28.387Z,87.60
2022-09-22T14:28:57.913Z,83.50
2022-09-22T14:31:27.436Z,86.80
2022-09-22T14:33:57.570Z,90.00
2022-09-22T14:36:27.040Z,90.70
2022-09-22T14:39:07.994Z,90.40
2022-09-22T14:41:37.912Z,91.00
2022-09-22T14:44:27.370Z,89.50
2022-09-22T14:46:56.327Z,86.50
2022-09-22T14:49:39.663Z,88.10
2022-09-22T14:52:08.682Z,92.40
2022-09-22T14:54:38.984Z,91.70
2022-09-22T14:57:08.468Z,92.40
2022-09-22T14:59:55.356Z,92.00
2022-09-22T15:02:33.542Z,90.90
2022-09-22T15:05:03.759Z,91.20
2022-09-22T15:07:32.617Z,91.50
2022-09-22T15:10:02.596Z,92.10
2022-09-22T15:12:35.310Z,91.20
2022-09-22T15:15:03.243Z,90.50
2022-09-22T15:17:56.262Z,90.90
2022-09-22T15:20:29.018Z,93.80
2022-09-22T15:22:57.666Z,93.30
2022-09-22T15:25:25.755Z,94.60
2022-09-22T15:27:54.126Z,98.10
2022-09-22T15:30:23.063Z,99.70
2022-09-22T15:32:50.973Z,99.90
2022-09-22T15:35:19.251Z,99.90
2022-09-22T15:37:49.758Z,99.90
2022-09-22T15:40:18.555Z,99.90
2022-09-22T15:43:08.733Z,99.90
2022-09-22T15:45:35.128Z,99.90
2022-09-22T15:48:03.524Z,99.90
2022-09-22T15:50:31.691Z,99.90
2022-09-22T15:53:01.128Z,99.90
2022-09-22T15:55:29.081Z,99.90
2022-09-22T15:58:08.440Z,99.90
2022-09-22T16:00:36.491Z,99.90
2022-09-22T16:03:06.765Z,99.90
2022-09-22T16:05:35.023Z,99.90
2022-09-22T16:08:05.225Z,99.90
2022-09-22T16:10:33.316Z,99.90
2022-09-22T16:13:02.004Z,99.90
2022-09-22T16:15:32.279Z,99.90
2022-09-22T16:18:00.200Z,99.90
2022-09-22T16:20:28.118Z,99.90
2022-09-22T16:22:56.018Z,99.90
2022-09-22T16:25:26.480Z,99.90
2022-09-22T16:27:54.403Z,99.90
2022-09-22T16:30:25.821Z,99.90
2022-09-22T16:32:54.394Z,99.90
2022-09-22T16:35:24.275Z,99.90
2022-09-22T16:37:56.606Z,99.90
2022-09-22T16:40:28.565Z,99.90
2022-09-22T16:42:56.542Z,99.90
2022-09-22T16:45:38.312Z,99.90
2022-09-22T16:48:07.160Z,99.90
2022-09-22T16:50:37.880Z,99.90
2022-09-22T16:53:07.253Z,99.90
2022-09-22T16:55:37.658Z,99.90
2022-09-22T16:58:07.428Z,99.90
2022-09-22T17:00:35.404Z,99.90
2022-09-22T17:03:03.333Z,99.90
2022-09-22T17:05:32.839Z,99.90
2022-09-22T17:08:05.964Z,99.90
2022-09-22T17:10:36.195Z,99.90
2022-09-22T17:13:05.381Z,99.90
2022-09-22T17:15:36.110Z,99.90
2022-09-22T17:18:04.992Z,99.90
2022-09-22T17:20:32.907Z,99.90
2022-09-22T17:23:00.836Z,99.90
2022-09-22T17:25:29.287Z,99.90
2022-09-22T17:27:59.007Z,99.90
2022-09-22T17:30:27.007Z,99.90
2022-09-22T17:32:54.999Z,99.90
2022-09-22T17:35:22.994Z,99.90
2022-09-22T17:37:53.353Z,99.90
2022-09-22T17:40:21.762Z,99.90
2022-09-22T17:42:49.657Z,99.90
2022-09-22T17:45:20.940Z,99.90
2022-09-22T17:48:06.131Z,99.90
2022-09-22T17:50:51.512Z,99.90
2022-09-22T17:53:36.967Z,99.90
2022-09-22T17:56:05.861Z,99.90
2022-09-22T17:58:34.022Z,99.90
2022-09-22T18:01:03.382Z,99.90
2022-09-22T18:03:31.332Z,99.90
2022-09-22T18:05:59.239Z,99.90
2022-09-22T18:08:27.136Z,99.90
2022-09-22T18:10:55.117Z,99.90
2022-09-22T18:13:23.084Z,99.90
2022-09-22T18:15:54.506Z,99.90
2022-09-22T18:18:24.202Z,99.90
2022-09-22T18:20:52.162Z,99.90
2022-09-22T18:23:25.536Z,99.90
2022-09-22T18:25:55.852Z,99.90
2022-09-22T18:28:24.107Z,99.90
2022-09-22T18:30:52.118Z,99.90
2022-09-22T18:33:20.044Z,99.90
2022-09-22T18:35:52.091Z,99.90
2022-09-22T18:38:20.306Z,99.90
2022-09-22T18:40:49.367Z,99.90
2022-09-22T18:43:20.348Z,99.90
2022-09-22T18:45:48.391Z,99.90
2022-09-22T18:48:18.118Z,99.90
2022-09-22T18:50:50.115Z,99.90
2022-09-22T18:53:22.182Z,99.90
2022-09-22T18:55:51.137Z,99.90
2022-09-22T18:58:24.902Z,99.90
2022-09-22T19:00:53.106Z,99.90
2022-09-22T19:03:21.881Z,99.90
2022-09-22T19:05:49.824Z,99.90
2022-09-22T19:08:20.784Z,99.90
2022-09-22T19:10:50.229Z,99.90
2022-09-22T19:13:18.363Z,99.90
2022-09-22T19:15:47.885Z,99.90
2022-09-22T19:18:16.566Z,99.90
2022-09-22T19:21:08.137Z,99.90
2022-09-22T19:23:43.332Z,99.90
2022-09-22T19:26:12.889Z,99.90
2022-09-22T19:28:41.930Z,99.90
2022-09-22T19:31:10.021Z,99.90
2022-09-22T19:33:41.446Z,99.90
2022-09-22T19:36:10.982Z,99.90
2022-09-22T19:38:40.651Z,99.90
2022-09-22T19:41:08.791Z,99.90
2022-09-22T19:43:49.850Z,99.90
2022-09-22T19:46:18.017Z,99.90
2022-09-22T19:48:46.214Z,99.90
2022-09-22T19:51:14.223Z,99.90
2022-09-22T19:53:43.629Z,99.90
2022-09-22T19:56:11.876Z,99.90
2022-09-22T19:58:41.699Z,99.90
2022-09-22T20:01:11.028Z,99.90
2022-09-22T20:03:39.500Z,99.90
2022-09-22T20:06:07.795Z,99.90
2022-09-22T20:08:36.265Z,99.90
2022-09-22T20:11:25.204Z,99.90
2022-09-22T20:14:11.306Z,99.90
2022-09-22T20:16:41.668Z,99.90
2022-09-22T20:19:12.704Z,99.90
2022-09-22T20:21:42.148Z,99.90
2022-09-22T20:24:11.498Z,99.90
2022-09-22T20:26:41.734Z,99.90
2022-09-22T20:29:09.836Z,99.90
2022-09-22T20:31:37.916Z,99.90
2022-09-22T20:34:06.810Z,99.90
2022-09-22T20:36:37.120Z,99.90
2022-09-22T20:39:05.916Z,99.90
2022-09-22T20:41:34.251Z,99.90
2022-09-22T20:44:03.735Z,99.90
2022-09-22T20:46:31.966Z,99.90
2022-09-22T20:49:00.001Z,99.90
2022-09-22T20:51:28.539Z,99.90
2022-09-22T20:53:56.708Z,99.90
2022-09-22T20:56:24.818Z,99.90
2022-09-22T20:58:52.828Z,99.90
2022-09-22T21:01:22.335Z,99.90
2022-09-22T21:03:50.420Z,99.90
2022-09-22T21:06:18.578Z,99.90
2022-09-22T21:09:04.104Z,99.90
2022-09-22T21:11:32.367Z,99.90
2022-09-22T21:14:03.991Z,99.90
2022-09-22T21:16:34.220Z,99.90
2022-09-22T21:19:02.916Z,99.90
2022-09-22T21:21:32.141Z,99.90
2022-09-22T21:24:02.022Z,99.90
2022-09-22T21:26:30.244Z,99.90
2022-09-22T21:28:59.657Z,99.90
2022-09-22T21:31:28.194Z,99.90
2022-09-22T21:33:58.129Z,99.90
2022-09-22T21:36:26.573Z,99.90
2022-09-22T21:38:56.534Z,99.90
2022-09-22T21:41:25.059Z,99.90
2022-09-22T21:43:53.347Z,99.90
2022-09-22T21:46:22.513Z,99.90
2022-09-22T21:48:50.649Z,99.90
2022-09-22T21:51:20.714Z,99.90
2022-09-22T21:53:49.769Z,99.90
2022-09-22T21:56:18.841Z,99.90
2022-09-22T21:58:50.802Z,99.90
2022-09-22T22:04:24.901Z,99.90
2022-09-22T22:07:04.930Z,99.90
2022-09-22T22:09:38.495Z,99.90
2022-09-22T22:12:09.413Z,99.90
2022-09-22T22:14:43.687Z,99.90
2022-09-22T22:17:14.838Z,99.90
2022-09-22T22:19:45.535Z,99.90
2022-09-22T22:22:19.981Z,99.90
2022-09-22T22:24:51.097Z,99.90
2022-09-22T22:27:19.508Z,99.90
2022-09-22T22:30:09.290Z,99.90
2022-09-22T22:33:01.692Z,99.90
2022-09-22T22:36:33.849Z,99.90
2022-09-22T22:39:11.806Z,99.90
2022-09-22T22:41:45.251Z,99.90
2022-09-22T22:44:13.461Z,99.90
2022-09-22T22:46:41.492Z,99.90
2022-09-22T22:49:12.796Z,99.90
2022-09-22T22:51:45.850Z,99.90
2022-09-22T22:54:19.232Z,99.90
2022-09-22T22:57:10.568Z,99.90
2022-09-22T23:00:16.039Z,99.90
2022-09-22T23:09:40.030Z,99.90
2022-09-22T23:12:34.403Z,99.90
2022-09-22T23:15:24.756Z,99.90
2022-09-22T23:18:27.871Z,99.90
2022-09-22T23:21:11.557Z,99.90
2022-09-22T23:23:51.996Z,99.90
2022-09-22T23:26:57.487Z,99.90
2022-09-22T23:36:10.913Z,99.90
2022-09-22T23:39:06.179Z,99.90
2022-09-22T23:42:19.697Z,99.90
2022-09-22T23:45:21.296Z,99.90
2022-09-22T23:57:12.284Z,99.90
